Portland Mills, Pennsylvania
Current Conditions -  °F | °C
As of 12:53 PM on Saturday 22 Nov 2014 (Local Time) from KDUJ Reporting Station
Freezing Rain Freezing Rain  
Wind Chill: 26°   Ceiling: 1000
Heat Index: 33°   Visibility: 1.5mi
Dew Point: 30°   Wind: 8mph
Humidity: 89%   Direction: 210°SSW
Pressure: 30.16"   Gusts: NA
Location:  41.4397°N, 78.7326°W
Report Text: KDUJ 221753Z AUTO 21007KT 1 1/2SM -FZRA BR OVC010 01/M01 A3016 RMK AO2 UPE26FZRAB26 SLP239 P0005 60006 I1004 I6004 T00061011 10022 21083 55021
Loading
Personal Weather Stations






























Interactive Weather Map New forecast layout! Learn more

10-Day Weather Forecast

Advertisements
Track Severe Weather on mobile